Portada
METAR-TAF:

METAR-TAF

Aeroports :

Maurici, Maurici

latitud: 20-26S, longitud: 057-40E, altitud: 55 m

Observació

L'informe es va fer fa 38 minuts, a les 13:00 UTC
Vent 13 kt del Est
Temperatura 28°C
Humitat 74%
Pressió 1016 hPa
Visibilitat 10 km o més
Núvols disperses a una alçada de 1800 ft
Núvols disperses a una alçada de 5000 ft

METAR: FIMP 071300Z 10013KT 9999 SCT018 SCT050 28/23 Q1016

Hora: 17:38 (13:38 UTC)

Pronòstic

L'informe es va fer fa 2 hores i 8 minuts, a les 11:30 UTC
Pronòstic vàlid del 07 a les 12 UTC al 08 a les 18 UTC
Vent 13 kt del Est amb ràfegues de 25 kt
Visibilitat 10 km o més
Núvols disperses a una alçada de 1800 ft
Temporalment
l' 07 a les 16 UTC al 07 a les 22 UTC
Visibilitat: 7000 m
Escasses núvols a una alçada de 1000 ft
Cel ennuvolat a una alçada de 1600 ft
xàfecs de pluja

TAF: FIMP 071130Z 0712/0818 10013G25KT 9999 SCT018 TEMPO 0716/0722 7000 -SHRA FEW010 BKN016

Observacions i pronòstics meteorològics de més de 4000 aeroports (METAR i TAF).

Les estacions disponibles són els punts grocs i vermells al mapa.

Posi el ratolí al punt desitjat per veure el nom de l'estació.

Feu clic per veure les observacions i els pronòstics meteorològics.

Per canviar el mapa: feu clic els botons verds amb una creu de color negre per apropar; al botó verd amb un guió per allunyar la imatge; o en les fletxes verdes per a mapes adjacents.


METAR-TAF: